Terminal Aerodrome Forecast
Issued by NWS

Home | Current Version | Previous Version | Graphics & Text | Print | Product List | Glossary On
Versions: 1 2 3 4 5 6 7 8 9 10 11 12 13
747
FTUS43 KTOP 032323
TAFMHK
TAF
KMHK 032323Z 0400/0424 28004KT P6SM FEW080
     FM040800 31009KT P6SM SKC
     FM041300 35010G18KT P6SM SKC=

USA.gov is the U.S. government's official web portal to all federal, state and local government web resources and services.